Time;durP1;ratioP1;P1;durP2;ratioP2;P2;SDS_P1;SDS_P2;PMS_P1;PMS_P2;Temp;Humidity;BMP_temperature;BMP_pressure;BME280_temperature;BME280_humidity;BME280_pressure;Samples;Min_cycle;Max_cycle;Signal;HPM_P1;HPM_P2
2024/03/23 00:00:27;;;;;;;3.58;1.70;;;;;;;9.32;53.71;92347.31;2071636;69;20128;-74
2024/03/23 00:02:54;;;;;;;4.63;2.00;;;;;;;9.37;53.71;92349.03;2071784;69;20156;-78
2024/03/23 00:09:09;;;;;;;3.58;1.50;;;;;;;9.13;54.21;92347.56;2074279;69;20132;-75
2024/03/23 00:11:36;;;;;;;4.80;1.85;;;;;;;9.13;53.54;92337.06;2075154;69;20155;-75
2024/03/23 00:14:03;;;;;;;2.55;1.60;;;;;;;8.90;53.86;92337.81;2072646;69;20618;-78
2024/03/23 00:16:30;;;;;;;3.15;1.60;;;;;;;9.11;53.64;92336.22;2068575;69;20527;-77
2024/03/23 00:18:57;;;;;;;4.00;1.67;;;;;;;8.91;54.35;92299.22;2070308;69;20148;-79
2024/03/23 00:21:24;;;;;;;4.47;1.50;;;;;;;9.19;52.22;92327.53;2072038;69;20221;-79
2024/03/23 00:23:51;;;;;;;3.70;1.30;;;;;;;9.20;51.55;92331.81;2071979;69;20220;-77
2024/03/23 00:26:17;;;;;;;2.88;1.30;;;;;;;8.89;52.75;92332.81;2071608;69;20168;-76
2024/03/23 00:28:44;;;;;;;2.17;1.40;;;;;;;8.65;53.39;92329.94;2071806;69;20152;-77
2024/03/23 00:31:11;;;;;;;2.38;1.38;;;;;;;8.68;53.28;92330.81;2068358;69;20160;-79
2024/03/23 00:33:38;;;;;;;3.45;1.33;;;;;;;8.84;53.61;92322.66;2071910;69;20140;-79
2024/03/23 00:36:04;;;;;;;1.95;1.15;;;;;;;8.88;52.63;92320.09;2068578;69;20231;-78
2024/03/23 00:38:31;;;;;;;2.60;1.00;;;;;;;8.77;53.83;92315.94;2071880;69;20611;-79
2024/03/23 00:41:01;;;;;;;4.40;1.55;;;;;;;8.28;53.96;92309.38;2072034;69;20637;-79
2024/03/23 00:43:30;;;;;;;3.42;1.33;;;;;;;8.53;53.53;92306.78;2071638;69;20156;-76
2024/03/23 00:46:00;;;;;;;2.53;1.33;;;;;;;8.62;53.46;92303.13;2071733;69;20604;-78
2024/03/23 00:48:27;;;;;;;1.83;1.20;;;;;;;8.68;53.15;92297.16;2071871;69;20175;-78
2024/03/23 00:50:54;;;;;;;2.00;1.48;;;;;;;8.02;52.84;92204.72;2071859;69;20178;-80
2024/03/23 00:53:24;;;;;;;4.05;1.27;;;;;;;8.63;53.64;92301.78;2068414;69;20144;-78
2024/03/23 00:55:51;;;;;;;2.42;1.38;;;;;;;8.48;53.24;92298.72;2068247;69;20140;-79
2024/03/23 00:58:17;;;;;;;2.38;1.23;;;;;;;8.48;54.25;92291.03;2071785;69;20630;-76
2024/03/23 01:00:43;;;;;;;3.35;1.40;;;;;;;8.15;53.45;92254.59;2072005;69;20213;-74
2024/03/23 01:03:10;;;;;;;2.83;1.10;;;;;;;8.48;54.12;92290.31;2068378;69;20144;-77
2024/03/23 01:05:36;;;;;;;2.17;1.10;;;;;;;8.35;54.59;92280.38;2068498;69;20205;-76
2024/03/23 01:08:02;;;;;;;2.55;1.42;;;;;;;8.24;54.70;92287.41;2071757;69;20203;-77
2024/03/23 01:10:27;;;;;;;1.85;1.15;;;;;;;8.26;55.23;92284.00;2071701;69;20139;-77
2024/03/23 01:12:53;;;;;;;2.22;1.10;;;;;;;8.27;54.93;92280.59;2071941;69;20223;-76
2024/03/23 01:15:18;;;;;;;2.30;1.20;;;;;;;8.19;54.77;92274.47;2068435;69;20152;-74
2024/03/23 01:17:44;;;;;;;2.38;1.30;;;;;;;8.19;54.28;92273.75;2071632;69;20519;-78
2024/03/23 01:20:10;;;;;;;4.05;1.20;;;;;;;8.11;54.79;92271.91;2071704;69;20138;-77
2024/03/23 01:22:36;;;;;;;1.88;1.23;;;;;;;8.30;54.30;92264.63;2071719;69;20176;-79
2024/03/23 01:25:01;;;;;;;1.85;1.30;;;;;;;8.09;55.05;92259.81;2071709;69;20702;-76
2024/03/23 01:27:27;;;;;;;3.13;1.30;;;;;;;8.21;54.76;92268.28;2068316;69;20162;-76
2024/03/23 01:29:52;;;;;;;2.42;1.30;;;;;;;8.18;54.98;92270.22;2070422;69;20147;-77
2024/03/23 01:32:19;;;;;;;2.67;1.20;;;;;;;8.10;55.34;92272.50;2070923;69;20148;-75
2024/03/23 01:34:45;;;;;;;3.45;1.30;;;;;;;8.03;54.36;92262.25;2071737;69;20263;-75
2024/03/23 01:37:10;;;;;;;1.95;1.35;;;;;;;7.66;56.08;92276.03;2071587;69;20171;-76
2024/03/23 01:39:36;;;;;;;1.90;1.15;;;;;;;7.95;55.17;92279.28;2071719;69;20584;-78
2024/03/23 01:42:02;;;;;;;2.65;1.20;;;;;;;7.91;55.16;92270.63;2071475;69;20163;-81
2024/03/23 01:44:28;;;;;;;2.03;1.30;;;;;;;7.68;56.03;92265.66;2071704;69;20152;-76
2024/03/23 01:46:53;;;;;;;4.38;1.20;;;;;;;7.72;55.44;92262.41;2071606;69;20133;-79
2024/03/23 01:49:20;;;;;;;3.08;1.10;;;;;;;7.76;56.29;92263.38;2071604;69;20149;-76
2024/03/23 01:51:46;;;;;;;2.83;1.30;;;;;;;7.56;56.61;92264.88;2071782;69;20231;-75
2024/03/23 01:54:12;;;;;;;2.22;1.08;;;;;;;7.24;57.37;92264.25;2071704;69;20168;-75
2024/03/23 01:56:38;;;;;;;1.60;1.13;;;;;;;7.53;56.83;92264.03;2071739;69;20159;-75
2024/03/23 01:59:06;;;;;;;1.85;1.20;;;;;;;7.51;56.34;92265.94;2072597;69;20144;-74
2024/03/23 02:01:35;;;;;;;1.95;1.00;;;;;;;7.50;56.33;92265.22;2075220;69;20213;-74
2024/03/23 02:04:01;;;;;;;2.00;1.30;;;;;;;7.63;55.19;92267.47;2072022;69;20148;-78
2024/03/23 02:06:27;;;;;;;1.70;1.13;;;;;;;7.52;56.31;92256.97;2071584;69;20155;-79
2024/03/23 02:08:54;;;;;;;3.47;1.42;;;;;;;7.55;56.25;92260.59;2071674;69;20151;-75
2024/03/23 02:11:21;;;;;;;2.60;1.30;;;;;;;7.39;56.39;92255.44;2071703;69;20163;-76
2024/03/23 02:13:47;;;;;;;2.60;1.08;;;;;;;7.52;55.85;92256.22;2071806;69;20140;-78
2024/03/23 02:16:13;;;;;;;2.05;1.05;;;;;;;7.47;55.82;92246.06;2071604;69;20148;-79
2024/03/23 02:18:38;;;;;;;3.17;1.38;;;;;;;7.51;55.80;92251.94;2071432;69;20147;-78
2024/03/23 02:21:04;;;;;;;2.42;1.10;;;;;;;7.20;56.33;92235.25;2071576;69;20164;-80
2024/03/23 02:23:30;;;;;;;1.27;1.08;;;;;;;7.33;54.84;92237.50;2071505;69;20199;-79
2024/03/23 02:25:56;;;;;;;3.67;0.75;;;;;;;7.59;53.53;92236.38;2071518;69;20140;-80
2024/03/23 02:28:22;;;;;;;2.78;0.98;;;;;;;7.66;52.95;92236.81;2071701;69;20635;-79
2024/03/23 02:34:35;;;;;;;1.75;1.00;;;;;;;7.38;55.08;92223.16;2070401;69;20263;-79
2024/03/23 02:37:02;;;;;;;4.07;1.30;;;;;;;7.01;56.24;92219.31;2071094;69;20596;-76
2024/03/23 02:39:27;;;;;;;3.15;1.20;;;;;;;6.95;55.37;92213.31;2071542;69;20262;-80
2024/03/23 02:41:53;;;;;;;2.83;1.40;;;;;;;7.18;55.22;92215.50;2071592;69;20235;-80
2024/03/23 02:44:18;;;;;;;2.28;1.02;;;;;;;7.27;55.76;92211.91;2071522;69;20159;-79
2024/03/23 02:46:44;;;;;;;2.13;1.20;;;;;;;7.17;55.19;92205.66;2071213;69;20638;-80
2024/03/23 02:49:10;;;;;;;2.30;1.10;;;;;;;7.17;55.28;92220.38;2071697;69;20151;-78
2024/03/23 02:51:35;;;;;;;1.90;1.13;;;;;;;7.15;56.28;92223.06;2071471;69;20185;-81
2024/03/23 02:54:01;;;;;;;2.20;1.20;;;;;;;7.12;55.27;92222.19;2067992;69;20216;-81
2024/03/23 02:56:27;;;;;;;2.95;1.17;;;;;;;6.69;55.61;92223.47;2071453;69;20172;-76
2024/03/23 02:58:52;;;;;;;4.10;1.60;;;;;;;6.93;54.98;92213.19;2068149;69;20275;-78
2024/03/23 03:01:18;;;;;;;3.70;1.50;;;;;;;7.15;55.05;92211.88;2071455;69;20151;-76
2024/03/23 03:03:44;;;;;;;2.72;1.40;;;;;;;7.21;54.81;92200.31;2071215;69;20197;-79
2024/03/23 03:06:10;;;;;;;2.47;1.10;;;;;;;7.26;53.31;92199.97;2071026;69;20156;-77
2024/03/23 03:08:35;;;;;;;3.30;1.00;;;;;;;7.42;52.69;92205.88;2071245;69;20125;-79
2024/03/23 03:11:01;;;;;;;1.23;0.90;;;;;;;7.43;51.64;92196.16;2071466;69;20156;-80
2024/03/23 03:13:27;;;;;;;1.67;0.90;;;;;;;7.54;51.57;92194.72;2071292;69;20140;-79
2024/03/23 03:15:53;;;;;;;1.70;0.90;;;;;;;7.43;51.66;92190.56;2067947;69;20531;-81
2024/03/23 03:18:19;;;;;;;1.10;0.90;;;;;;;7.51;51.60;92199.47;2071384;69;20152;-81
2024/03/23 03:20:45;;;;;;;1.70;0.90;;;;;;;7.37;52.33;92192.94;2071527;69;20584;-80
2024/03/23 03:23:12;;;;;;;3.83;0.93;;;;;;;7.14;53.18;92199.19;2071483;69;20567;-82
2024/03/23 03:25:37;;;;;;;1.45;1.10;;;;;;;7.12;52.14;92201.84;2071446;69;20247;-77
2024/03/23 03:28:04;;;;;;;1.42;1.00;;;;;;;7.35;51.29;92185.16;2071167;69;20608;-75
2024/03/23 03:30:29;;;;;;;1.58;1.00;;;;;;;7.28;51.36;92188.16;2068044;69;20144;-76
2024/03/23 03:32:55;;;;;;;1.23;0.90;;;;;;;7.47;50.43;92185.22;2071370;69;20210;-79
2024/03/23 03:35:21;;;;;;;2.58;1.13;;;;;;;7.41;52.28;92184.81;2071113;69;20235;-77
2024/03/23 03:37:47;;;;;;;1.40;1.00;;;;;;;7.45;51.27;92182.28;2068125;69;20160;-78
2024/03/23 03:40:14;;;;;;;0.80;0.80;;;;;;;7.51;51.23;92181.91;2069686;69;20155;-80
2024/03/23 03:42:41;;;;;;;1.73;0.90;;;;;;;7.44;50.66;92166.09;2068014;69;20156;-79
2024/03/23 03:45:07;;;;;;;3.10;1.05;;;;;;;7.57;50.90;92166.25;2071458;69;20148;-81
2024/03/23 03:47:33;;;;;;;1.23;0.93;;;;;;;7.45;51.49;92159.88;2068095;69;20144;-80
2024/03/23 03:49:59;;;;;;;1.38;1.00;;;;;;;7.44;51.92;92175.22;2071125;69;20549;-79
2024/03/23 03:52:24;;;;;;;2.95;1.20;;;;;;;7.47;51.69;92167.66;2071159;69;20527;-80
2024/03/23 03:58:37;;;;;;;1.15;0.90;;;;;;;7.46;51.08;92164.13;2071457;69;20193;-77
2024/03/23 04:01:03;;;;;;;3.72;0.98;;;;;;;7.16;50.96;92157.34;2071406;69;20148;-77
2024/03/23 04:03:28;;;;;;;1.70;0.80;;;;;;;7.40;51.73;92158.16;2071323;69;20136;-76
2024/03/23 04:05:54;;;;;;;1.77;0.90;;;;;;;7.35;51.47;92148.03;2071504;69;20148;-77
2024/03/23 04:08:20;;;;;;;4.68;1.10;;;;;;;7.17;49.75;92146.88;2071412;69;20147;-78
2024/03/23 04:10:46;;;;;;;3.08;1.00;;;;;;;7.06;50.11;92149.03;2071318;69;20167;-78
2024/03/23 04:13:13;;;;;;;1.10;0.98;;;;;;;7.43;49.79;92148.56;2071086;69;20324;-75
2024/03/23 04:15:39;;;;;;;2.88;0.93;;;;;;;7.36;49.79;92146.69;2067767;69;20580;-78
2024/03/23 04:18:05;;;;;;;1.25;1.10;;;;;;;7.45;50.09;92150.75;2071201;69;20172;-77
2024/03/23 04:20:32;;;;;;;1.52;0.90;;;;;;;7.46;51.02;92144.53;2071376;69;20239;-77
2024/03/23 04:23:01;;;;;;;1.95;1.00;;;;;;;7.63;50.50;92149.09;2071309;69;20239;-78
2024/03/23 04:25:27;;;;;;;2.08;1.10;;;;;;;7.35;50.92;92137.56;2071508;69;20137;-75
2024/03/23 04:27:52;;;;;;;2.13;1.42;;;;;;;7.35;50.68;92123.56;2071055;69;20171;-76
2024/03/23 04:30:19;;;;;;;3.08;0.77;;;;;;;7.35;50.43;92136.84;2071161;69;20149;-77
2024/03/23 04:32:47;;;;;;;1.25;0.80;;;;;;;7.43;50.21;92126.16;2071091;69;20148;-80
2024/03/23 04:35:13;;;;;;;2.65;1.10;;;;;;;7.23;49.77;92119.25;2071359;69;20236;-80
2024/03/23 04:37:41;;;;;;;2.70;1.10;;;;;;;7.28;49.87;92118.16;2071340;69;20322;-79
2024/03/23 04:40:07;;;;;;;1.70;1.10;;;;;;;7.18;49.92;92118.25;2071366;69;20585;-82
2024/03/23 04:42:33;;;;;;;1.25;1.00;;;;;;;7.52;49.58;92110.59;2071215;69;20143;-79
2024/03/23 04:44:59;;;;;;;1.55;0.90;;;;;;;7.44;50.28;92104.47;2067137;69;20155;-73
2024/03/23 04:47:25;;;;;;;1.30;0.95;;;;;;;7.19;52.29;92094.53;2071384;69;20148;-78
2024/03/23 04:49:52;;;;;;;2.78;1.23;;;;;;;7.06;51.70;92092.31;2066711;69;20226;-75
2024/03/23 04:52:17;;;;;;;1.30;0.90;;;;;;;7.07;52.28;92100.09;2068407;69;20144;-76
2024/03/23 04:54:45;;;;;;;2.03;1.17;;;;;;;7.12;52.46;92101.81;2068374;69;20214;-76
2024/03/23 04:57:11;;;;;;;1.67;1.10;;;;;;;7.11;50.95;92108.03;2068413;69;20157;-79
2024/03/23 04:59:36;;;;;;;3.05;1.20;;;;;;;7.31;50.44;92094.56;2067952;69;20235;-75
2024/03/23 05:02:02;;;;;;;2.00;1.20;;;;;;;7.33;50.70;92103.84;2067935;69;20172;-78
2024/03/23 05:04:28;;;;;;;2.10;1.10;;;;;;;7.48;50.32;92094.25;2068569;69;20151;-75
2024/03/23 05:06:54;;;;;;;1.65;0.90;;;;;;;7.47;49.75;92092.03;2068571;69;20177;-81
2024/03/23 05:09:19;;;;;;;1.77;1.10;;;;;;;7.53;49.33;92093.16;2068509;69;20152;-82
2024/03/23 05:11:45;;;;;;;2.50;1.30;;;;;;;7.46;49.81;92085.72;2068225;69;20148;-80
2024/03/23 05:14:13;;;;;;;1.20;1.00;;;;;;;7.37;50.30;92097.75;2068460;69;20140;-78
2024/03/23 05:16:39;;;;;;;3.15;1.20;;;;;;;7.50;49.98;92080.38;2068368;69;20179;-79
2024/03/23 05:19:05;;;;;;;2.17;1.13;;;;;;;7.43;49.74;92075.75;2068479;69;20548;-79
2024/03/23 05:21:31;;;;;;;5.25;1.10;;;;;;;7.43;50.16;92072.94;2068473;69;20133;-75
2024/03/23 05:23:56;;;;;;;1.85;0.90;;;;;;;7.38;51.17;92074.03;2067775;69;20586;-74
2024/03/23 05:26:22;;;;;;;1.88;0.88;;;;;;;7.42;51.52;92056.72;2068524;69;20178;-76
2024/03/23 05:28:48;;;;;;;1.27;0.90;;;;;;;7.38;51.45;92055.16;2068457;69;20144;-78
2024/03/23 05:31:25;;;;;;;1.77;1.05;;;;;;;7.43;50.17;92042.13;2068364;69;20672;-74
2024/03/23 05:33:52;;;;;;;2.40;1.10;;;;;;;7.43;50.91;92041.41;2068393;69;20214;-75
2024/03/23 05:36:18;;;;;;;2.25;0.77;;;;;;;7.48;51.77;92052.25;2068429;69;20136;-78
2024/03/23 05:38:44;;;;;;;2.78;1.27;;;;;;;7.33;52.43;92059.03;2068494;69;20206;-77
2024/03/23 05:41:10;;;;;;;3.95;1.50;;;;;;;7.18;52.08;92048.28;2068340;69;20149;-80
2024/03/23 05:43:35;;;;;;;3.00;1.23;;;;;;;7.17;52.83;92057.28;2068662;69;20141;-76
2024/03/23 05:46:02;;;;;;;3.75;2.10;;;;;;;7.27;52.36;92055.84;2068863;69;20674;-76
2024/03/23 05:48:28;;;;;;;2.47;1.50;;;;;;;7.42;52.39;92045.53;2068445;69;20184;-78
2024/03/23 05:50:54;;;;;;;3.30;1.90;;;;;;;7.07;52.54;92043.41;2068979;69;20144;-73
2024/03/23 05:53:23;;;;;;;17.77;8.77;;;;;;;7.04;52.47;92048.13;2072057;69;20225;-79
2024/03/23 05:55:50;;;;;;;21.08;6.82;;;;;;;7.23;52.23;92050.00;2069131;69;20156;-76
2024/03/23 05:58:17;;;;;;;16.67;6.93;;;;;;;7.22;52.08;92045.75;2071626;69;20144;-75
2024/03/23 06:00:43;;;;;;;11.20;4.90;;;;;;;7.23;52.58;92049.25;2071690;69;20179;-79
2024/03/23 06:03:10;;;;;;;7.05;3.85;;;;;;;7.30;52.33;92037.84;2071683;69;20152;-74
2024/03/23 06:05:36;;;;;;;8.40;3.80;;;;;;;7.30;53.17;92037.84;2071932;69;20152;-77
2024/03/23 06:08:01;;;;;;;6.05;4.43;;;;;;;7.11;53.44;92043.66;2071791;69;20599;-77
2024/03/23 06:10:28;;;;;;;7.22;3.92;;;;;;;7.00;53.92;92049.94;2068477;69;20204;-81
2024/03/23 06:12:54;;;;;;;11.57;6.30;;;;;;;7.08;53.45;92047.66;2071727;69;20149;-84
2024/03/23 06:15:19;;;;;;;7.10;4.43;;;;;;;7.21;53.44;92040.75;2071680;69;20603;-81
2024/03/23 06:21:33;;;;;;;7.60;3.80;;;;;;;7.16;53.83;92022.25;2071717;69;20182;-75
2024/03/23 06:23:59;;;;;;;17.60;6.70;;;;;;;7.24;53.56;92022.72;2071841;69;20129;-75
2024/03/23 06:26:25;;;;;;;23.55;9.48;;;;;;;7.30;54.46;92020.31;2071695;69;20160;-73
2024/03/23 06:28:50;;;;;;;19.65;7.50;;;;;;;7.12;55.13;92014.31;2071806;69;20557;-80
2024/03/23 06:31:16;;;;;;;11.85;5.28;;;;;;;7.29;54.93;92002.06;2071560;69;20155;-78
2024/03/23 06:33:42;;;;;;;17.48;6.45;;;;;;;7.13;54.06;91999.00;2071662;69;20140;-74
2024/03/23 06:36:10;;;;;;;8.52;5.35;;;;;;;7.15;54.36;92007.53;2068366;69;20164;-77
2024/03/23 06:38:38;;;;;;;9.18;5.20;;;;;;;7.18;55.31;92009.09;2068470;69;20528;-74
2024/03/23 06:41:05;;;;;;;7.20;4.18;;;;;;;7.18;54.95;91997.16;2071937;69;20682;-73
2024/03/23 06:43:31;;;;;;;8.52;4.53;;;;;;;7.21;55.19;92007.16;2071654;69;20149;-72
2024/03/23 06:45:57;;;;;;;12.40;6.40;;;;;;;7.12;55.42;92003.84;2071741;69;20206;-81
2024/03/23 06:48:23;;;;;;;7.95;4.47;;;;;;;7.18;55.83;92002.78;2071579;69;20148;-79
2024/03/23 06:50:48;;;;;;;10.18;4.00;;;;;;;7.18;55.84;91986.69;2071678;69;20148;-80
2024/03/23 06:53:15;;;;;;;6.65;4.30;;;;;;;7.29;55.06;91977.59;2071571;69;20133;-72
2024/03/23 06:55:40;;;;;;;7.28;4.53;;;;;;;7.03;55.31;91981.56;2071728;69;20148;-75
2024/03/23 06:58:06;;;;;;;8.93;4.80;;;;;;;7.16;55.47;91980.25;2068239;69;20159;-73
2024/03/23 07:00:32;;;;;;;9.25;4.82;;;;;;;7.27;55.76;91963.47;2071680;69;20382;-75
2024/03/23 07:06:45;;;;;;;9.27;5.63;;;;;;;7.28;55.76;91927.78;2071658;69;20155;-80
2024/03/23 07:09:11;;;;;;;4.90;2.33;;;;;;;7.47;54.67;91929.63;2068334;69;20142;-75
2024/03/23 07:11:37;;;;;;;2.60;1.60;;;;;;;7.55;54.14;91918.91;2071499;69;20141;-77
2024/03/23 07:14:03;;;;;;;5.78;1.95;;;;;;;7.66;52.99;91923.78;2071637;69;20200;-75
2024/03/23 07:16:29;;;;;;;3.22;1.90;;;;;;;7.58;53.12;91926.09;2070156;69;20591;-82
2024/03/23 07:18:55;;;;;;;8.77;2.78;;;;;;;7.37;54.70;91924.13;2071280;69;20132;-74
2024/03/23 07:21:21;;;;;;;5.43;3.03;;;;;;;7.48;54.53;91928.28;2070931;69;20147;-77
2024/03/23 07:23:46;;;;;;;7.10;3.20;;;;;;;7.33;54.70;91896.66;2071348;69;20164;-76
2024/03/23 07:26:12;;;;;;;4.93;3.10;;;;;;;7.58;54.77;91898.06;2068144;69;20172;-77
2024/03/23 07:28:42;;;;;;;5.15;2.88;;;;;;;7.70;53.89;91892.44;2071546;69;20528;-75
2024/03/23 07:31:12;;;;;;;4.85;2.88;;;;;;;7.84;54.32;91887.69;2071612;69;20224;-75
2024/03/23 07:33:43;;;;;;;6.28;2.70;;;;;;;8.39;54.18;91902.03;2071505;69;20589;-78
2024/03/23 07:36:09;;;;;;;4.50;2.40;;;;;;;8.46;52.16;91886.25;2071008;69;20275;-74
2024/03/23 07:38:34;;;;;;;6.65;2.80;;;;;;;8.94;53.87;91882.56;2070842;69;20180;-75
2024/03/23 07:41:19;;;;;;;5.00;2.65;;;;;;;9.41;52.86;91876.59;2070893;69;20156;-74
2024/03/23 07:43:46;;;;;;;6.43;3.42;;;;;;;9.79;51.86;91885.50;2070830;69;20361;-74
2024/03/23 07:46:12;;;;;;;9.35;5.03;;;;;;;9.97;50.59;91883.63;2070899;69;20191;-74
2024/03/23 07:48:42;;;;;;;9.73;4.00;;;;;;;10.63;50.35;91874.19;2070699;69;20224;-74
2024/03/23 07:51:16;;;;;;;6.25;3.38;;;;;;;10.76;49.51;91872.66;2071228;69;20171;-74
2024/03/23 07:53:45;;;;;;;7.47;3.70;;;;;;;11.26;48.97;91867.88;2071446;69;20217;-75
2024/03/23 07:56:10;;;;;;;5.97;3.45;;;;;;;11.64;49.30;91865.34;2071459;69;20217;-74
2024/03/23 07:58:37;;;;;;;4.93;3.30;;;;;;;12.02;47.86;91862.72;2071456;69;20156;-74
2024/03/23 08:01:11;;;;;;;10.82;4.82;;;;;;;12.17;47.15;91859.84;2071389;69;20179;-75
2024/03/23 08:03:38;;;;;;;6.32;3.60;;;;;;;11.48;46.77;91859.72;2071301;69;20164;-77
2024/03/23 08:06:17;;;;;;;6.00;2.95;;;;;;;12.28;46.19;91861.00;2071325;69;20148;-78
2024/03/23 08:08:49;;;;;;;4.28;2.60;;;;;;;12.50;44.74;91812.47;2071305;69;20171;-75
2024/03/23 08:11:14;;;;;;;2.97;2.33;;;;;;;12.67;46.85;91840.69;2071239;69;20152;-76
2024/03/23 08:13:41;;;;;;;5.68;2.75;;;;;;;13.13;44.91;91843.84;2071213;69;20163;-78
2024/03/23 08:16:08;;;;;;;4.15;2.40;;;;;;;13.51;43.66;91832.53;2071149;69;20128;-76
2024/03/23 08:18:34;;;;;;;4.50;2.90;;;;;;;13.93;42.86;91821.28;2071207;69;20183;-77
2024/03/23 08:21:00;;;;;;;5.18;2.22;;;;;;;14.48;42.41;91826.69;2067933;69;20235;-79
2024/03/23 08:23:28;;;;;;;5.30;2.13;;;;;;;14.60;42.80;91815.03;2071886;69;20201;-76
2024/03/23 08:26:05;;;;;;;2.97;1.85;;;;;;;14.93;42.18;91827.38;2071904;69;20165;-78
2024/03/23 08:28:30;;;;;;;3.08;2.10;;;;;;;15.29;42.29;91824.19;2072127;69;20584;-78
2024/03/23 08:30:57;;;;;;;4.05;2.20;;;;;;;16.07;39.46;91833.50;2071830;69;20155;-79
2024/03/23 08:33:24;;;;;;;3.78;2.20;;;;;;;16.17;39.65;91830.19;2071633;69;20235;-77
2024/03/23 08:35:58;;;;;;;5.28;2.00;;;;;;;16.20;38.75;91823.19;2071813;69;20137;-77
2024/03/23 08:38:25;;;;;;;2.95;1.88;;;;;;;16.38;38.15;91823.66;2071737;69;20746;-77
2024/03/23 08:44:37;;;;;;;6.13;1.83;;;;;;;17.06;38.03;91814.66;2071828;69;20122;-77
2024/03/23 08:47:03;;;;;;;3.88;2.20;;;;;;;16.89;37.01;91816.41;2071791;69;20243;-77
2024/03/23 08:49:28;;;;;;;5.45;2.60;;;;;;;16.75;38.17;91819.63;2071855;69;20586;-75
2024/03/23 08:51:54;;;;;;;9.20;1.95;;;;;;;17.63;37.04;91824.41;2071957;69;20565;-75
2024/03/23 08:54:22;;;;;;;1.92;1.40;;;;;;;17.60;35.80;91825.06;2071874;69;20152;-76
2024/03/23 08:56:47;;;;;;;1.85;1.38;;;;;;;17.80;34.97;91834.03;2068562;69;20199;-76
2024/03/23 08:59:13;;;;;;;1.77;1.27;;;;;;;18.02;33.45;91836.63;2071927;69;20643;-75
2024/03/23 09:01:38;;;;;;;4.57;1.50;;;;;;;18.04;33.86;91839.50;2071921;69;20575;-76
2024/03/23 09:04:04;;;;;;;3.92;1.10;;;;;;;17.88;31.79;91839.91;2071978;69;20144;-76
2024/03/23 09:06:29;;;;;;;2.65;1.40;;;;;;;17.63;31.24;91840.78;2071967;69;20155;-76
2024/03/23 09:08:55;;;;;;;1.83;1.00;;;;;;;19.54;31.95;91818.47;2072025;69;20176;-78
2024/03/23 09:11:21;;;;;;;2.47;1.38;;;;;;;19.33;30.07;91841.72;2071773;69;20136;-77
2024/03/23 09:17:34;;;;;;;2.25;1.33;;;;;;;19.84;30.40;91842.44;2071713;69;20189;-75
2024/03/23 09:20:00;;;;;;;1.50;1.40;;;;;;;19.63;30.99;91850.03;2071645;69;20160;-75
2024/03/23 09:22:25;;;;;;;2.85;1.83;;;;;;;19.86;31.40;91845.34;2071623;69;20172;-77
2024/03/23 09:24:51;;;;;;;2.80;1.38;;;;;;;19.29;30.91;91842.41;2071728;69;20168;-77
2024/03/23 09:27:17;;;;;;;2.08;1.15;;;;;;;18.81;29.94;91837.34;2071778;69;20136;-75
2024/03/23 09:29:42;;;;;;;2.35;1.15;;;;;;;19.12;30.73;91837.84;2071890;69;20604;-79
2024/03/23 09:32:08;;;;;;;4.10;1.58;;;;;;;18.91;30.92;91828.97;2071880;69;20251;-78
2024/03/23 09:34:34;;;;;;;2.05;1.33;;;;;;;19.05;29.81;91832.03;2071800;69;20147;-78
2024/03/23 09:36:59;;;;;;;2.72;1.45;;;;;;;19.34;28.76;91832.47;2071823;69;20140;-75
2024/03/23 09:39:25;;;;;;;2.95;2.10;;;;;;;18.41;31.04;91829.50;2068497;69;20234;-78
2024/03/23 09:41:56;;;;;;;8.23;5.60;;;;;;;18.96;30.70;91827.59;2071633;69;20532;-78
2024/03/23 09:44:22;;;;;;;5.78;3.50;;;;;;;18.83;30.60;91826.00;2071627;69;20159;-78
2024/03/23 09:50:40;;;;;;;4.82;1.60;;;;;;;21.09;30.00;91810.19;2071737;69;20155;-76
2024/03/23 09:53:11;;;;;;;2.38;1.33;;;;;;;20.19;29.72;91801.44;2071684;69;20516;-76
2024/03/23 09:55:37;;;;;;;4.35;2.70;;;;;;;20.60;29.43;91792.59;2071815;69;20155;-76
2024/03/23 09:58:04;;;;;;;5.05;4.20;;;;;;;20.03;28.71;91795.56;2071779;69;20141;-77
2024/03/23 10:00:31;;;;;;;3.55;2.42;;;;;;;21.04;28.95;91786.53;2071733;69;20155;-77
2024/03/23 10:03:01;;;;;;;2.20;1.70;;;;;;;21.32;29.81;91803.22;2071686;69;20144;-76
2024/03/23 10:05:37;;;;;;;2.15;1.60;;;;;;;20.92;28.75;91804.31;2071705;69;20596;-77
2024/03/23 10:08:14;;;;;;;2.03;1.60;;;;;;;20.66;30.42;91796.22;2071544;69;20172;-77
2024/03/23 10:10:41;;;;;;;3.17;1.85;;;;;;;20.00;30.12;91791.25;2071512;69;20189;-75
2024/03/23 10:13:06;;;;;;;2.47;1.77;;;;;;;20.10;30.64;91787.78;2071578;69;20180;-75
2024/03/23 10:15:35;;;;;;;2.90;2.05;;;;;;;19.74;29.65;91795.22;2071529;69;20138;-74
2024/03/23 10:18:28;;;;;;;7.75;1.90;;;;;;;19.85;30.39;91781.06;2071366;69;20179;-76
2024/03/23 10:21:06;;;;;;;5.03;1.67;;;;;;;20.10;31.26;91773.50;2070831;69;20135;-76
2024/03/23 10:23:42;;;;;;;5.93;2.00;;;;;;;19.65;30.84;91764.41;2071433;69;20164;-76
2024/03/23 10:26:22;;;;;;;4.70;2.30;;;;;;;19.74;31.26;91765.94;2071624;69;20504;-76
2024/03/23 10:29:00;;;;;;;2.25;1.75;;;;;;;19.51;31.99;91762.78;2071416;69;20205;-75
2024/03/23 10:31:26;;;;;;;2.60;1.90;;;;;;;19.50;31.82;91764.19;2071455;69;20169;-74
2024/03/23 10:33:55;;;;;;;2.03;1.70;;;;;;;19.00;32.08;91764.22;2071324;69;20147;-77
2024/03/23 10:36:22;;;;;;;2.40;1.90;;;;;;;19.03;32.46;91772.13;2071566;69;20251;-74
2024/03/23 10:38:50;;;;;;;2.95;1.60;;;;;;;18.05;35.94;91769.75;2071456;69;20148;-76
2024/03/23 10:41:16;;;;;;;4.75;2.00;;;;;;;17.67;36.00;91776.13;2071533;69;20156;-76
2024/03/23 10:43:43;;;;;;;2.83;1.90;;;;;;;18.33;35.87;91778.09;2071496;69;20148;-75
2024/03/23 10:46:09;;;;;;;4.45;1.65;;;;;;;17.40;37.29;91774.13;2071587;69;20258;-74
2024/03/23 10:48:34;;;;;;;2.20;1.42;;;;;;;17.24;38.74;91777.38;2071486;69;20651;-73
2024/03/23 10:51:01;;;;;;;2.58;1.35;;;;;;;17.88;37.28;91788.66;2071371;69;20613;-73
2024/03/23 10:53:28;;;;;;;1.65;1.15;;;;;;;17.07;39.29;91793.34;2071377;69;20155;-75
2024/03/23 10:55:55;;;;;;;2.65;1.38;;;;;;;17.57;39.68;91795.84;2071400;69;20256;-76
2024/03/23 10:58:30;;;;;;;2.00;1.10;;;;;;;17.49;39.33;91807.75;2071420;69;20180;-76
2024/03/23 11:00:55;;;;;;;1.95;1.02;;;;;;;16.26;41.95;91814.81;2071451;69;20144;-74
2024/03/23 11:03:32;;;;;;;2.65;0.68;;;;;;;15.33;43.15;91824.31;2071423;69;20619;-74
2024/03/23 11:05:59;;;;;;;1.20;0.80;;;;;;;16.06;43.46;91832.06;2071517;69;20136;-73
2024/03/23 11:08:38;;;;;;;1.13;0.70;;;;;;;14.97;45.65;91836.00;2071434;69;20164;-74
2024/03/23 11:11:20;;;;;;;1.00;0.82;;;;;;;14.90;46.87;91842.88;2071439;69;20160;-74
2024/03/23 11:13:49;;;;;;;0.80;0.70;;;;;;;14.51;47.67;91846.56;2071762;69;20152;-73
2024/03/23 11:16:16;;;;;;;0.95;0.63;;;;;;;14.88;47.32;91852.03;2071523;69;20592;-75
2024/03/23 11:18:43;;;;;;;1.58;0.63;;;;;;;14.26;48.17;91857.06;2068177;69;20144;-77
2024/03/23 11:21:09;;;;;;;0.80;0.60;;;;;;;14.62;48.49;91871.03;2071649;69;20163;-76
2024/03/23 11:23:35;;;;;;;1.02;0.70;;;;;;;13.95;51.50;91873.00;2071547;69;20481;-76
2024/03/23 11:26:01;;;;;;;1.00;0.50;;;;;;;14.17;50.47;91883.66;2071540;69;20138;-76
2024/03/23 11:28:26;;;;;;;0.60;0.40;;;;;;;14.35;51.28;91892.03;2071598;69;20620;-77
2024/03/23 11:30:52;;;;;;;0.60;0.57;;;;;;;14.48;51.28;91900.31;2071560;69;20160;-76
2024/03/23 11:33:18;;;;;;;0.98;0.50;;;;;;;14.28;51.42;91913.03;2071529;69;20607;-75
2024/03/23 11:35:44;;;;;;;0.73;0.40;;;;;;;13.98;52.28;91933.22;2071645;69;20176;-75
2024/03/23 11:38:19;;;;;;;1.80;1.10;;;;;;;13.40;54.45;91940.97;2071771;69;20516;-73
2024/03/23 11:40:47;;;;;;;0.68;0.68;;;;;;;12.56;55.43;91923.53;2071215;69;20235;-73
2024/03/23 11:43:17;;;;;;;1.35;1.05;;;;;;;13.01;56.35;91964.13;2068146;69;20141;-74
2024/03/23 11:45:52;;;;;;;2.95;2.63;;;;;;;13.45;54.50;91968.03;2071397;69;20152;-74
2024/03/23 11:48:19;;;;;;;0.95;0.70;;;;;;;13.41;55.30;91965.75;2071442;69;20148;-76
2024/03/23 11:50:47;;;;;;;2.22;0.52;;;;;;;13.42;57.92;91983.44;2071505;69;20140;-76
2024/03/23 11:53:24;;;;;;;0.65;0.40;;;;;;;13.44;57.13;91989.19;2071490;69;20140;-75
2024/03/23 11:55:51;;;;;;;2.83;0.90;;;;;;;13.11;57.22;92002.03;2071697;69;20679;-73
2024/03/23 11:58:19;;;;;;;0.88;0.50;;;;;;;13.26;57.99;92020.28;2072650;69;20199;-74
2024/03/23 12:04:36;;;;;;;3.42;2.10;;;;;;;11.51;60.79;92021.91;2072563;69;20146;-77
2024/03/23 12:07:13;;;;;;;4.22;3.45;;;;;;;11.23;60.53;92032.59;2072586;69;20140;-77
2024/03/23 12:09:39;;;;;;;4.55;3.05;;;;;;;11.81;60.14;92031.03;2072547;69;20144;-75
2024/03/23 12:12:11;;;;;;;1.40;1.20;;;;;;;12.15;60.51;92040.34;2072451;69;20151;-74